Time;durP1;ratioP1;P1;durP2;ratioP2;P2;SDS_P1;SDS_P2;PMS_P1;PMS_P2;Temp;Humidity;BMP_temperature;BMP_pressure;BME280_temperature;BME280_humidity;BME280_pressure;Samples;Min_cycle;Max_cycle;Signal;HPM_P1;HPM_P2
2023/11/24 00:00:08;;;;;;;26.40;13.20;;;;;;;3.57;77.50;97145.20;105668;1254;96619;-73
2023/11/24 00:02:56;;;;;;;26.10;12.00;;;;;;;3.58;77.56;97138.44;105476;1256;113037;-73
2023/11/24 00:05:25;;;;;;;25.20;12.70;;;;;;;3.60;77.29;97128.20;105645;1254;96593;-73
2023/11/24 00:07:52;;;;;;;25.10;12.70;;;;;;;3.61;77.47;97138.09;105590;1254;107717;-73
2023/11/24 00:10:20;;;;;;;25.60;12.20;;;;;;;3.62;77.50;97139.58;105958;1250;97931;-72
2023/11/24 00:12:49;;;;;;;22.00;10.50;;;;;;;3.65;77.69;97120.43;105655;1251;97570;-73
2023/11/24 00:15:17;;;;;;;25.00;12.40;;;;;;;3.70;77.63;97122.83;105745;1251;109950;-73
2023/11/24 00:17:45;;;;;;;25.00;11.90;;;;;;;3.75;77.54;97107.09;105869;1254;96588;-72
2023/11/24 00:20:14;;;;;;;23.80;10.60;;;;;;;3.78;77.40;97098.64;105428;1254;107641;-73
2023/11/24 00:22:42;;;;;;;22.40;10.60;;;;;;;3.81;77.68;97087.64;105565;1252;96583;-73
2023/11/24 00:25:10;;;;;;;23.10;10.70;;;;;;;3.88;77.61;97084.52;105768;1254;96571;-73
2023/11/24 00:27:38;;;;;;;23.10;10.20;;;;;;;3.93;77.76;97085.69;105629;1253;110212;-73
2023/11/24 00:30:07;;;;;;;23.90;10.80;;;;;;;3.97;77.55;97082.20;105427;1256;96586;-73
2023/11/24 00:32:35;;;;;;;21.00;10.10;;;;;;;4.01;77.74;97073.51;105606;1254;107729;-73
2023/11/24 00:35:06;;;;;;;24.60;11.10;;;;;;;4.04;77.78;97079.94;105520;1254;96631;-72
2023/11/24 00:37:34;;;;;;;24.50;10.50;;;;;;;4.08;77.77;97077.02;105564;1253;96586;-73
2023/11/24 00:40:07;;;;;;;22.50;10.40;;;;;;;4.11;77.78;97082.23;105514;1270;109814;-71
2023/11/24 00:42:35;;;;;;;21.00;9.40;;;;;;;4.14;77.77;97074.05;105768;1263;96699;-73
2023/11/24 00:45:06;;;;;;;22.30;10.30;;;;;;;4.15;77.77;97054.48;105413;1256;107330;-73
2023/11/24 00:47:34;;;;;;;22.00;9.90;;;;;;;4.17;77.60;97065.42;105618;1255;96583;-73
2023/11/24 00:50:05;;;;;;;21.90;9.80;;;;;;;4.19;77.74;97076.88;105780;1253;96641;-73
2023/11/24 00:52:33;;;;;;;22.80;11.90;;;;;;;4.20;77.75;97065.35;105677;1254;109519;-73
2023/11/24 00:55:02;;;;;;;24.70;10.00;;;;;;;4.21;77.84;97057.08;105771;1254;97521;-72
2023/11/24 00:57:30;;;;;;;21.40;10.20;;;;;;;4.20;77.89;97063.57;105624;1251;107090;-74
2023/11/24 00:59:58;;;;;;;23.30;10.80;;;;;;;4.19;77.81;97054.57;105332;1256;97033;-73
2023/11/24 01:02:26;;;;;;;22.80;11.20;;;;;;;4.20;77.77;97057.09;105572;1250;96611;-73
2023/11/24 01:04:54;;;;;;;23.70;10.50;;;;;;;4.21;77.86;97055.68;105543;1254;109382;-72
2023/11/24 01:07:24;;;;;;;20.50;8.70;;;;;;;4.21;77.89;97045.83;105827;1253;96777;-73
2023/11/24 01:09:52;;;;;;;21.70;9.50;;;;;;;4.25;77.98;97052.71;105571;1252;107477;-73
2023/11/24 01:12:20;;;;;;;22.10;10.10;;;;;;;4.31;77.89;97039.05;105966;1254;96678;-73
2023/11/24 01:14:48;;;;;;;22.60;10.90;;;;;;;4.34;78.13;97048.34;105566;1251;97511;-73
2023/11/24 01:17:16;;;;;;;21.10;9.50;;;;;;;4.35;78.07;97079.14;105759;1253;108972;-73
2023/11/24 01:19:44;;;;;;;19.40;8.70;;;;;;;4.35;78.12;97084.52;105606;1253;96658;-73
2023/11/24 01:22:12;;;;;;;19.80;9.00;;;;;;;4.38;78.27;97081.91;105738;1256;107224;-72
2023/11/24 01:24:40;;;;;;;19.50;8.50;;;;;;;4.40;77.91;97071.00;105830;1254;97794;-73
2023/11/24 01:27:08;;;;;;;18.10;8.00;;;;;;;4.45;78.19;97070.73;105900;1251;97499;-73
2023/11/24 01:29:36;;;;;;;21.50;9.30;;;;;;;4.50;77.97;97070.73;105551;1256;110114;-73
2023/11/24 01:32:04;;;;;;;18.20;8.50;;;;;;;4.50;78.10;97067.18;105739;1253;96590;-72
2023/11/24 01:34:32;;;;;;;21.70;10.40;;;;;;;4.50;78.21;97072.80;105698;1254;107674;-73
2023/11/24 01:37:00;;;;;;;20.60;9.60;;;;;;;4.49;78.04;97085.39;105611;1254;96586;-73
2023/11/24 01:39:27;;;;;;;21.20;9.90;;;;;;;4.47;77.98;97069.23;105765;1255;97486;-74
2023/11/24 01:41:56;;;;;;;21.90;10.20;;;;;;;4.46;77.90;97074.74;105849;1253;109381;-72
2023/11/24 01:44:24;;;;;;;22.40;9.40;;;;;;;4.44;77.94;97085.73;105694;1257;97521;-73
2023/11/24 01:46:54;;;;;;;22.00;9.40;;;;;;;4.43;78.09;97095.14;105853;1254;107108;-73
2023/11/24 01:49:23;;;;;;;22.30;10.50;;;;;;;4.39;77.83;97163.90;105752;1250;96599;-73
2023/11/24 01:51:54;;;;;;;19.40;8.50;;;;;;;4.33;77.80;97208.73;105596;1251;96596;-73
2023/11/24 01:54:25;;;;;;;11.00;5.00;;;;;;;4.26;77.86;97207.20;105689;1254;111073;-74
2023/11/24 01:56:57;;;;;;;4.30;2.50;;;;;;;4.22;78.13;97190.14;105746;1254;97427;-73
2023/11/24 01:59:25;;;;;;;5.10;2.40;;;;;;;4.22;78.20;97188.91;105738;1254;107651;-73
2023/11/24 02:01:53;;;;;;;3.40;1.80;;;;;;;4.22;78.53;97190.14;105894;1253;96606;-73
2023/11/24 02:04:21;;;;;;;3.40;2.00;;;;;;;4.23;78.44;97178.27;105977;1251;96674;-73
2023/11/24 02:06:50;;;;;;;3.40;1.80;;;;;;;4.25;78.43;97184.45;105656;1254;109516;-73
2023/11/24 02:09:18;;;;;;;2.00;1.60;;;;;;;4.27;78.37;97187.47;105848;1253;97436;-73
2023/11/24 02:11:47;;;;;;;2.50;2.00;;;;;;;4.27;78.31;97178.83;105694;1254;108215;-73
2023/11/24 02:14:15;;;;;;;3.50;1.90;;;;;;;4.27;78.33;97179.76;105750;1251;96590;-73
2023/11/24 02:16:42;;;;;;;2.20;1.10;;;;;;;4.27;78.42;97178.48;105752;1254;96580;-72
2023/11/24 02:19:11;;;;;;;2.90;1.10;;;;;;;4.28;78.71;97177.09;105563;1253;109608;-73
2023/11/24 02:21:39;;;;;;;2.10;1.00;;;;;;;4.26;78.51;97174.55;105713;1256;96760;-75
2023/11/24 02:24:07;;;;;;;2.00;1.20;;;;;;;4.24;78.61;97159.48;105474;1257;107377;-72
2023/11/24 02:26:35;;;;;;;2.70;0.90;;;;;;;4.23;78.80;97159.35;105738;1254;97903;-73
2023/11/24 02:29:03;;;;;;;2.40;0.90;;;;;;;4.25;78.71;97147.33;105823;1250;96504;-73
2023/11/24 02:31:32;;;;;;;1.00;0.70;;;;;;;4.26;78.79;97150.35;105830;1251;109601;-73
2023/11/24 02:34:01;;;;;;;1.50;1.10;;;;;;;4.25;78.81;97145.14;105758;1254;96606;-73
2023/11/24 02:36:32;;;;;;;1.00;0.70;;;;;;;4.27;78.82;97147.13;105894;1250;106210;-73
2023/11/24 02:39:00;;;;;;;0.80;0.80;;;;;;;4.28;78.76;97150.86;105435;1257;96681;-73
2023/11/24 02:41:28;;;;;;;3.00;0.90;;;;;;;4.29;78.86;97152.77;105606;1252;96609;-74
2023/11/24 02:43:56;;;;;;;1.10;0.80;;;;;;;4.28;78.68;97158.08;105791;1253;109873;-72
2023/11/24 02:46:24;;;;;;;1.10;0.70;;;;;;;4.27;78.73;97149.25;105798;1251;96641;-73
2023/11/24 02:48:52;;;;;;;2.10;0.90;;;;;;;4.25;78.72;97145.55;105602;1251;107687;-74
2023/11/24 02:51:20;;;;;;;0.90;0.70;;;;;;;4.23;78.94;97151.79;105863;1257;96584;-71
2023/11/24 02:53:48;;;;;;;0.90;0.60;;;;;;;4.21;78.77;97140.90;105740;1252;96971;-73
2023/11/24 02:56:17;;;;;;;1.20;1.00;;;;;;;4.19;78.78;97138.61;105762;1251;110050;-73
2023/11/24 02:58:45;;;;;;;2.40;0.90;;;;;;;4.17;78.73;97138.20;105758;1266;96615;-73
2023/11/24 03:01:13;;;;;;;1.50;1.20;;;;;;;4.15;78.66;97138.86;105543;1254;107187;-73
2023/11/24 03:03:41;;;;;;;1.60;0.70;;;;;;;4.14;79.08;97144.03;105794;1254;97520;-73
2023/11/24 03:06:12;;;;;;;1.70;0.90;;;;;;;4.14;79.13;97141.23;105516;1257;96670;-73
2023/11/24 03:08:40;;;;;;;0.90;0.90;;;;;;;4.16;78.88;97133.94;105808;1251;109997;-72
2023/11/24 03:11:08;;;;;;;2.30;0.90;;;;;;;4.16;79.27;97131.97;105692;1253;96522;-74
2023/11/24 03:13:36;;;;;;;1.60;1.20;;;;;;;4.17;79.01;97123.65;105551;1266;107580;-73
2023/11/24 03:16:08;;;;;;;1.90;1.00;;;;;;;4.18;78.99;97124.64;105666;1253;97894;-73
2023/11/24 03:18:36;;;;;;;1.90;1.20;;;;;;;4.19;79.09;97121.73;105444;1257;96607;-73
2023/11/24 03:21:04;;;;;;;2.10;1.30;;;;;;;4.20;79.08;97116.45;105806;1251;110730;-74
2023/11/24 03:23:32;;;;;;;2.40;1.40;;;;;;;4.19;78.92;97102.48;105591;1251;96507;-73
2023/11/24 03:26:02;;;;;;;3.30;1.50;;;;;;;4.17;79.20;97091.89;105345;1257;107669;-72
2023/11/24 03:28:31;;;;;;;2.50;1.40;;;;;;;4.18;78.98;97074.31;105565;1254;96682;-73
2023/11/24 03:30:59;;;;;;;5.70;2.40;;;;;;;4.18;79.11;97056.21;105743;1251;96501;-73
2023/11/24 03:33:29;;;;;;;8.10;3.90;;;;;;;4.19;79.32;97031.57;105549;1256;109705;-73
2023/11/24 03:35:57;;;;;;;7.40;3.80;;;;;;;4.19;79.48;97012.81;105869;1253;96670;-73
2023/11/24 03:38:25;;;;;;;7.20;3.00;;;;;;;4.21;79.25;96999.90;105679;1251;105893;-73
2023/11/24 03:40:54;;;;;;;2.50;1.90;;;;;;;4.21;79.39;96988.43;105889;1257;96667;-74
2023/11/24 03:43:23;;;;;;;3.00;2.30;;;;;;;4.24;79.43;96979.44;105905;1251;96669;-74
2023/11/24 03:45:51;;;;;;;4.60;2.30;;;;;;;4.27;79.21;96978.89;105967;1253;109951;-72
2023/11/24 03:48:21;;;;;;;3.80;2.00;;;;;;;4.31;79.47;96986.92;105887;1251;96604;-73
2023/11/24 03:50:51;;;;;;;5.60;2.50;;;;;;;4.36;79.37;96992.36;105684;1250;107339;-73
2023/11/24 03:53:19;;;;;;;4.10;2.00;;;;;;;4.40;79.52;96993.74;105761;1254;96599;-74
2023/11/24 03:55:47;;;;;;;3.50;2.50;;;;;;;4.45;79.50;97006.73;105824;1251;96501;-73
2023/11/24 03:58:15;;;;;;;3.90;2.20;;;;;;;4.49;79.42;97014.83;105530;1256;109892;-73
2023/11/24 04:00:45;;;;;;;5.00;2.20;;;;;;;4.53;79.56;97002.25;105366;1256;97827;-73
2023/11/24 04:03:12;;;;;;;2.60;2.00;;;;;;;4.56;79.67;96994.58;105708;1253;107735;-72
2023/11/24 04:05:40;;;;;;;5.10;2.20;;;;;;;4.60;79.56;97005.90;105745;1254;96679;-73
2023/11/24 04:08:10;;;;;;;3.80;2.10;;;;;;;4.62;79.72;97007.09;105501;1252;96696;-74
2023/11/24 04:10:38;;;;;;;3.40;2.00;;;;;;;4.65;79.52;96990.95;105968;1253;109679;-72
2023/11/24 04:13:06;;;;;;;2.70;2.00;;;;;;;4.66;79.70;96996.23;105874;1254;96624;-73
2023/11/24 04:15:34;;;;;;;4.10;2.30;;;;;;;4.68;79.60;97013.52;105583;1252;107513;-74
2023/11/24 04:18:02;;;;;;;1.90;1.60;;;;;;;4.70;79.51;97007.84;105743;1254;97916;-74
2023/11/24 04:20:31;;;;;;;4.00;2.00;;;;;;;4.72;79.71;96996.10;105860;1254;96575;-73
2023/11/24 04:22:59;;;;;;;3.10;1.70;;;;;;;4.74;79.64;96996.84;105597;1251;109397;-73
2023/11/24 04:25:27;;;;;;;5.60;2.30;;;;;;;4.76;79.44;96997.88;105812;1254;96676;-73
2023/11/24 04:27:54;;;;;;;1.40;1.30;;;;;;;4.78;79.50;97004.42;105467;1257;107760;-73
2023/11/24 04:30:22;;;;;;;5.30;1.60;;;;;;;4.80;79.59;97001.24;105815;1254;97493;-73
2023/11/24 04:32:50;;;;;;;3.80;2.00;;;;;;;4.82;79.77;97001.27;105446;1257;96559;-74
2023/11/24 04:35:19;;;;;;;4.30;1.70;;;;;;;4.85;79.43;96997.17;105578;1253;109461;-73
2023/11/24 04:37:48;;;;;;;3.40;1.70;;;;;;;4.88;79.63;96993.23;105752;1254;96801;-73
2023/11/24 04:40:18;;;;;;;2.70;1.50;;;;;;;4.92;79.76;96982.37;105814;1254;107685;-73
2023/11/24 04:42:46;;;;;;;4.50;1.70;;;;;;;4.95;79.89;96973.14;105800;1253;96761;-73
2023/11/24 04:45:14;;;;;;;3.20;1.60;;;;;;;4.98;79.60;96968.17;105749;1254;96594;-73
2023/11/24 04:47:42;;;;;;;4.90;2.30;;;;;;;5.02;79.77;96964.49;105883;1251;108936;-73
2023/11/24 04:50:11;;;;;;;4.70;1.90;;;;;;;5.04;79.57;96959.92;105668;1255;96600;-73
2023/11/24 04:52:39;;;;;;;4.40;1.40;;;;;;;5.05;79.49;96962.65;105704;1251;108069;-73
2023/11/24 04:55:07;;;;;;;4.60;1.80;;;;;;;5.07;79.73;96965.52;105444;1257;97394;-73
2023/11/24 04:57:35;;;;;;;4.00;1.60;;;;;;;5.08;79.73;96972.98;105784;1252;96822;-73
2023/11/24 05:00:07;;;;;;;4.40;1.80;;;;;;;5.11;79.57;96969.95;105694;1254;109907;-72
2023/11/24 05:02:35;;;;;;;3.20;1.60;;;;;;;5.13;79.62;96964.50;105676;1254;96680;-74
2023/11/24 05:05:03;;;;;;;5.60;1.60;;;;;;;5.13;79.48;96972.55;105897;1254;107636;-73
2023/11/24 05:07:31;;;;;;;4.90;1.90;;;;;;;5.13;79.52;96972.52;105953;1257;96542;-77
2023/11/24 05:10:00;;;;;;;4.20;1.60;;;;;;;5.14;79.56;96975.99;106013;1255;96580;-75
2023/11/24 05:12:28;;;;;;;4.30;1.70;;;;;;;5.14;79.38;96976.19;105699;1250;108774;-76
2023/11/24 05:14:56;;;;;;;7.20;1.80;;;;;;;5.14;79.55;96978.27;105640;1273;96708;-75
2023/11/24 05:17:25;;;;;;;6.70;2.20;;;;;;;5.14;79.63;96968.94;105871;1251;106738;-76
2023/11/24 05:19:53;;;;;;;4.60;2.10;;;;;;;5.15;79.45;96962.40;105590;1254;97410;-73
2023/11/24 05:22:21;;;;;;;5.20;2.10;;;;;;;5.15;79.68;96957.60;105803;1257;96603;-73
2023/11/24 05:24:49;;;;;;;7.70;1.90;;;;;;;5.15;79.49;96958.30;105925;1251;109960;-73
2023/11/24 05:27:17;;;;;;;7.10;1.80;;;;;;;5.16;79.37;96958.45;105634;1254;96577;-73
2023/11/24 05:29:45;;;;;;;2.70;1.80;;;;;;;5.15;79.35;96960.98;105600;1252;107617;-76
2023/11/24 05:32:16;;;;;;;5.30;1.90;;;;;;;5.13;79.58;96967.08;105781;1251;96664;-74
2023/11/24 05:34:44;;;;;;;4.80;1.90;;;;;;;5.12;79.30;96970.73;105803;1254;96599;-76
2023/11/24 05:37:12;;;;;;;3.50;1.70;;;;;;;5.11;79.55;96964.46;105925;1254;109696;-76
2023/11/24 05:39:40;;;;;;;7.10;2.40;;;;;;;5.10;79.62;96960.55;105739;1251;97921;-76
2023/11/24 05:42:10;;;;;;;6.90;2.20;;;;;;;5.09;79.46;96954.49;105530;1254;106894;-75
2023/11/24 05:44:38;;;;;;;6.10;2.10;;;;;;;5.07;79.42;96951.23;105656;1254;98028;-75
2023/11/24 05:47:07;;;;;;;5.40;1.70;;;;;;;5.06;79.51;96953.84;105858;1254;97301;-72
2023/11/24 05:49:35;;;;;;;5.90;1.90;;;;;;;5.05;79.40;96956.74;105916;1251;109818;-75
2023/11/24 05:52:03;;;;;;;6.50;2.20;;;;;;;5.07;79.50;96963.20;105671;1256;96577;-77
2023/11/24 05:54:33;;;;;;;6.50;2.20;;;;;;;5.10;79.66;96970.02;105612;1254;107691;-77
2023/11/24 05:57:01;;;;;;;9.70;2.50;;;;;;;5.10;79.55;96975.76;105667;1253;96663;-79
2023/11/24 05:59:29;;;;;;;4.70;2.30;;;;;;;5.11;79.36;96990.62;105621;1254;96535;-77
2023/11/24 06:01:58;;;;;;;7.80;2.10;;;;;;;5.09;79.34;96991.36;105604;1251;109995;-78
2023/11/24 06:04:26;;;;;;;9.40;2.70;;;;;;;5.06;79.38;96985.05;105683;1249;96615;-77
2023/11/24 06:06:54;;;;;;;9.30;2.30;;;;;;;5.06;79.25;96980.18;107251;1250;107392;-77
2023/11/24 06:09:23;;;;;;;8.80;3.00;;;;;;;5.05;79.30;96978.81;107586;1250;96584;-77
2023/11/24 06:11:51;;;;;;;8.50;2.60;;;;;;;5.05;79.42;96975.64;105982;1254;96677;-76
2023/11/24 06:14:19;;;;;;;10.40;3.20;;;;;;;5.04;79.30;96976.42;105479;1251;108962;-79
2023/11/24 06:16:47;;;;;;;8.20;2.60;;;;;;;5.04;79.31;96982.28;107444;1251;96555;-78
2023/11/24 06:19:15;;;;;;;11.80;4.60;;;;;;;5.03;79.35;96993.60;105657;1254;105996;-78
2023/11/24 06:21:43;;;;;;;10.40;3.90;;;;;;;5.02;79.29;96989.77;105837;1255;96644;-78
2023/11/24 06:24:11;;;;;;;5.90;2.60;;;;;;;5.03;79.32;96991.99;106187;1253;96593;-79
2023/11/24 06:26:39;;;;;;;6.60;2.60;;;;;;;5.03;79.24;96993.27;105677;1254;109968;-79
2023/11/24 06:29:07;;;;;;;5.70;2.40;;;;;;;5.02;79.25;96996.83;106879;1253;96637;-77
2023/11/24 06:31:35;;;;;;;8.80;2.70;;;;;;;5.02;79.17;96995.05;108633;1252;107703;-77
2023/11/24 06:34:03;;;;;;;4.40;2.60;;;;;;;5.02;79.19;96987.52;105672;1254;96710;-77
2023/11/24 06:36:31;;;;;;;5.50;2.20;;;;;;;5.01;79.19;96995.64;105889;1256;97868;-77
2023/11/24 06:39:11;;;;;;;5.80;2.30;;;;;;;5.01;78.95;97007.97;108900;1249;109938;-78
2023/11/24 06:41:39;;;;;;;9.90;2.90;;;;;;;4.92;78.71;97049.09;106153;1251;96582;-78
2023/11/24 06:44:07;;;;;;;6.40;2.40;;;;;;;4.68;78.44;97066.33;105859;1254;107407;-80
2023/11/24 06:46:34;;;;;;;3.00;1.50;;;;;;;4.35;78.27;97079.29;105869;1254;96646;-79
2023/11/24 06:49:05;;;;;;;4.10;1.40;;;;;;;4.02;77.81;97088.00;105558;1257;97283;-79
2023/11/24 06:51:33;;;;;;;1.90;1.20;;;;;;;3.66;78.05;97081.07;105504;1273;109000;-78
2023/11/24 06:54:02;;;;;;;4.80;2.70;;;;;;;3.38;78.19;97081.27;105628;1253;96580;-78
2023/11/24 06:56:31;;;;;;;6.30;2.90;;;;;;;3.22;78.46;97068.64;105821;1257;107675;-78
2023/11/24 06:58:59;;;;;;;2.60;1.40;;;;;;;3.10;78.45;97058.77;105559;1264;97500;-78
2023/11/24 07:01:31;;;;;;;1.40;1.30;;;;;;;3.03;78.56;97058.48;105632;1256;96708;-78
2023/11/24 07:04:02;;;;;;;5.60;1.90;;;;;;;2.95;78.52;97058.11;105552;1257;109374;-78
2023/11/24 07:06:30;;;;;;;3.70;1.60;;;;;;;2.92;78.46;97057.70;105740;1257;97810;-78
2023/11/24 07:08:58;;;;;;;6.10;2.50;;;;;;;2.89;78.63;97065.77;105387;1256;107423;-77
2023/11/24 07:11:26;;;;;;;6.20;2.00;;;;;;;2.83;78.51;97070.60;105542;1251;96578;-78
2023/11/24 07:13:54;;;;;;;3.40;1.60;;;;;;;2.79;78.65;97077.88;105666;1253;96590;-78
2023/11/24 07:16:22;;;;;;;6.50;2.10;;;;;;;2.76;78.44;97088.08;105738;1257;109591;-78
2023/11/24 07:18:50;;;;;;;5.10;1.70;;;;;;;2.72;78.62;97091.50;105888;1254;96612;-79
2023/11/24 07:21:20;;;;;;;5.30;2.20;;;;;;;2.70;78.68;97095.49;105493;1257;107192;-78
2023/11/24 07:23:48;;;;;;;9.60;3.90;;;;;;;2.69;78.46;97092.96;105706;1254;96581;-79
2023/11/24 07:26:17;;;;;;;10.40;4.10;;;;;;;2.71;78.67;97093.33;105546;1253;96584;-78
2023/11/24 07:28:45;;;;;;;7.40;3.10;;;;;;;2.74;78.75;97095.19;105591;1251;109871;-78
2023/11/24 07:31:20;;;;;;;12.80;4.50;;;;;;;2.79;78.74;97095.92;105717;1252;96506;-77
2023/11/24 07:33:48;;;;;;;19.00;6.60;;;;;;;2.85;78.91;97104.94;105760;1256;108341;-78
2023/11/24 07:36:21;;;;;;;15.20;5.30;;;;;;;2.92;78.72;97109.49;105855;1253;97212;-78
2023/11/24 07:38:49;;;;;;;19.90;6.20;;;;;;;2.98;78.97;97115.88;105623;1255;97407;-77
2023/11/24 07:41:17;;;;;;;14.80;5.60;;;;;;;3.05;78.85;97116.99;105528;1264;110531;-78
2023/11/24 07:43:44;;;;;;;14.40;5.20;;;;;;;3.10;78.85;97116.44;105738;1254;96720;-77
2023/11/24 07:46:13;;;;;;;16.10;6.20;;;;;;;3.12;78.88;97118.52;105499;1264;108209;-78
2023/11/24 07:48:41;;;;;;;17.60;5.80;;;;;;;3.16;78.90;97120.35;105553;1254;96718;-77
2023/11/24 07:51:10;;;;;;;19.60;6.50;;;;;;;3.21;78.92;97119.81;105717;1263;97819;-77
2023/11/24 07:53:38;;;;;;;20.50;6.20;;;;;;;3.28;78.87;97118.91;105567;1263;109843;-78
2023/11/24 07:56:06;;;;;;;26.40;8.20;;;;;;;3.35;78.91;97118.65;105860;1252;96685;-77
2023/11/24 07:58:34;;;;;;;20.60;7.20;;;;;;;3.39;78.95;97116.21;105726;1254;107483;-77
2023/11/24 08:01:02;;;;;;;9.00;3.80;;;;;;;3.45;78.73;97110.38;105278;1253;96606;-78
2023/11/24 08:03:34;;;;;;;17.10;6.20;;;;;;;3.45;78.66;97118.29;105574;1256;96630;-77
2023/11/24 08:06:07;;;;;;;11.50;4.30;;;;;;;3.47;78.88;97116.66;105600;1257;110119;-78
2023/11/24 08:08:35;;;;;;;11.90;5.00;;;;;;;3.50;78.75;97111.41;105639;1255;96642;-78
2023/11/24 08:11:04;;;;;;;14.80;4.40;;;;;;;3.51;78.71;97114.33;105870;1252;106384;-77
2023/11/24 08:13:32;;;;;;;9.40;4.20;;;;;;;3.50;78.66;97113.27;105817;1257;96603;-79
2023/11/24 08:16:02;;;;;;;12.40;4.10;;;;;;;3.53;78.71;97116.92;105761;1257;96583;-78
2023/11/24 08:18:30;;;;;;;13.30;4.50;;;;;;;3.56;78.77;97117.77;105626;1265;109935;-78
2023/11/24 08:21:01;;;;;;;14.60;4.90;;;;;;;3.58;78.67;97125.17;105292;1257;97522;-78
2023/11/24 08:23:30;;;;;;;10.60;3.90;;;;;;;3.60;78.82;97127.48;105608;1265;107324;-78
2023/11/24 08:25:58;;;;;;;18.30;5.10;;;;;;;3.59;78.76;97134.34;105331;1265;97909;-79
2023/11/24 08:28:26;;;;;;;12.10;4.10;;;;;;;3.60;78.72;97131.70;105654;1265;96583;-78
2023/11/24 08:30:55;;;;;;;9.10;2.80;;;;;;;3.60;78.88;97143.92;105521;1265;110642;-78
2023/11/24 08:33:23;;;;;;;12.30;3.80;;;;;;;3.63;78.84;97147.20;105499;1256;96500;-77
2023/11/24 08:35:51;;;;;;;13.90;4.30;;;;;;;3.68;78.86;97152.98;105525;1267;106251;-79
2023/11/24 08:38:19;;;;;;;21.30;6.40;;;;;;;3.72;78.78;97149.54;105676;1264;96749;-78
2023/11/24 08:40:47;;;;;;;53.80;22.60;;;;;;;3.74;78.77;97141.52;105275;1256;97994;-79
2023/11/24 08:43:15;;;;;;;14.40;4.60;;;;;;;3.77;78.77;97143.92;105763;1255;109876;-79
2023/11/24 08:45:43;;;;;;;19.90;4.70;;;;;;;3.78;78.51;97134.18;105496;1257;96715;-79
2023/11/24 08:48:11;;;;;;;13.50;4.60;;;;;;;3.79;78.69;97130.93;105365;1257;106650;-77
2023/11/24 08:50:39;;;;;;;14.70;5.10;;;;;;;3.83;78.63;97130.98;105347;1252;96755;-77
2023/11/24 08:53:07;;;;;;;15.80;4.30;;;;;;;3.86;78.58;97122.34;105657;1255;97902;-79
2023/11/24 08:55:34;;;;;;;14.80;4.50;;;;;;;3.92;78.69;97118.93;105390;1264;109971;-78
2023/11/24 08:58:02;;;;;;;18.20;5.80;;;;;;;3.97;78.69;97126.25;105595;1257;96529;-79
2023/11/24 09:00:30;;;;;;;13.60;4.30;;;;;;;4.02;78.73;97127.80;105646;1264;107168;-78
2023/11/24 09:02:59;;;;;;;11.20;4.00;;;;;;;4.05;78.68;97124.77;105584;1256;96590;-79
2023/11/24 09:05:27;;;;;;;11.70;3.10;;;;;;;4.10;78.81;97117.90;105864;1257;96670;-79
2023/11/24 09:07:55;;;;;;;13.70;3.10;;;;;;;4.15;78.88;97108.04;105626;1254;110579;-78
2023/11/24 09:10:23;;;;;;;13.00;3.50;;;;;;;4.21;78.59;97108.65;105861;1253;96644;-79
2023/11/24 09:12:51;;;;;;;18.40;3.20;;;;;;;4.23;78.58;97099.16;105840;1263;106567;-78
2023/11/24 09:15:19;;;;;;;6.70;2.90;;;;;;;4.26;78.66;97091.94;105708;1253;96644;-77
2023/11/24 09:17:47;;;;;;;11.70;3.10;;;;;;;4.31;78.50;97092.20;105384;1254;96639;-78
2023/11/24 09:20:18;;;;;;;11.80;4.00;;;;;;;4.38;78.72;97092.25;105526;1258;110360;-77
2023/11/24 09:22:46;;;;;;;8.80;2.40;;;;;;;4.43;78.44;97089.54;105246;1251;96578;-77
2023/11/24 09:25:15;;;;;;;16.00;3.20;;;;;;;4.45;78.39;97077.29;105643;1253;107354;-77
2023/11/24 09:27:44;;;;;;;16.30;4.00;;;;;;;4.49;78.04;97073.98;105794;1257;96549;-77
2023/11/24 09:30:12;;;;;;;16.40;3.70;;;;;;;4.56;78.35;97056.41;105851;1254;96867;-77
2023/11/24 09:32:43;;;;;;;13.40;3.20;;;;;;;4.60;78.53;97049.44;105856;1255;109467;-77
2023/11/24 09:35:11;;;;;;;15.10;3.90;;;;;;;4.58;78.28;97050.27;105951;1263;96509;-78
2023/11/24 09:37:39;;;;;;;13.60;3.20;;;;;;;4.55;78.21;97044.71;105640;1256;107700;-79
2023/11/24 09:40:13;;;;;;;15.80;3.50;;;;;;;4.51;77.89;97051.31;105657;1256;96586;-78
2023/11/24 09:42:45;;;;;;;17.70;4.70;;;;;;;4.51;78.14;97048.08;105851;1254;96611;-78
2023/11/24 09:45:17;;;;;;;16.90;4.90;;;;;;;4.56;78.19;97043.40;105953;1256;109502;-77
2023/11/24 09:47:49;;;;;;;13.50;3.80;;;;;;;4.63;78.22;97041.29;105866;1254;96495;-78
2023/11/24 09:50:25;;;;;;;15.90;4.80;;;;;;;4.67;78.37;97036.09;105563;1273;107702;-77
2023/11/24 09:52:58;;;;;;;18.70;5.70;;;;;;;4.71;78.01;97030.22;105769;1256;96679;-78
2023/11/24 09:55:30;;;;;;;17.40;5.80;;;;;;;4.76;78.16;97014.02;105888;1254;96592;-78
2023/11/24 09:57:58;;;;;;;14.30;3.70;;;;;;;4.85;78.03;97016.70;105665;1253;109722;-79
2023/11/24 10:00:26;;;;;;;16.30;4.50;;;;;;;4.89;78.08;97013.90;105788;1253;96638;-77
2023/11/24 10:02:59;;;;;;;16.40;3.80;;;;;;;4.91;78.16;97016.83;105387;1257;107697;-78
2023/11/24 10:05:28;;;;;;;12.50;3.90;;;;;;;4.95;78.04;97009.73;105495;1256;96685;-79
2023/11/24 10:07:57;;;;;;;14.90;4.10;;;;;;;5.01;77.93;96993.79;105650;1255;96593;-76
2023/11/24 10:10:26;;;;;;;10.10;3.90;;;;;;;5.07;78.01;96984.30;105719;1257;110257;-78
2023/11/24 10:12:59;;;;;;;14.70;3.80;;;;;;;5.13;77.73;96986.63;105360;1266;96524;-77
2023/11/24 10:15:28;;;;;;;13.20;2.80;;;;;;;5.14;77.81;96986.36;105563;1251;107246;-77
2023/11/24 10:17:57;;;;;;;14.90;3.70;;;;;;;5.16;77.51;96983.92;105472;1251;96606;-77
2023/11/24 10:20:28;;;;;;;16.80;5.60;;;;;;;5.19;77.87;96976.41;105560;1256;97501;-77
2023/11/24 10:22:59;;;;;;;11.70;3.70;;;;;;;5.29;77.93;96961.07;105635;1257;109817;-78
2023/11/24 10:25:29;;;;;;;9.20;3.10;;;;;;;5.36;77.51;96951.13;105469;1251;96575;-77
2023/11/24 10:28:00;;;;;;;17.60;3.50;;;;;;;5.40;77.71;96951.48;105646;1257;106128;-77
2023/11/24 10:30:28;;;;;;;15.00;3.50;;;;;;;5.41;77.42;96955.80;105687;1258;96581;-78
2023/11/24 10:32:56;;;;;;;13.60;3.80;;;;;;;5.43;77.51;96952.87;105495;1264;96519;-78
2023/11/24 10:35:24;;;;;;;11.70;3.40;;;;;;;5.42;77.26;96942.91;105666;1258;109914;-77
2023/11/24 10:37:54;;;;;;;17.90;5.30;;;;;;;5.41;77.09;96936.99;105621;1251;97415;-78
2023/11/24 10:40:23;;;;;;;14.00;3.80;;;;;;;5.37;77.39;96935.97;105611;1260;105835;-77
2023/11/24 10:42:53;;;;;;;14.90;3.90;;;;;;;5.35;77.24;96939.39;105659;1257;96684;-77
2023/11/24 10:45:22;;;;;;;16.80;4.10;;;;;;;5.34;76.90;96944.45;105647;1254;96584;-78
2023/11/24 10:48:12;;;;;;;17.10;4.10;;;;;;;5.31;76.87;96941.55;105605;1255;109950;-78
2023/11/24 10:50:43;;;;;;;19.40;5.40;;;;;;;5.27;77.08;96939.20;105834;1253;96594;-79
2023/11/24 10:53:26;;;;;;;19.50;6.60;;;;;;;5.27;77.19;96943.09;105510;1256;107683;-78
2023/11/24 10:55:58;;;;;;;17.20;5.30;;;;;;;5.26;77.16;96936.52;105345;1257;98052;-79
2023/11/24 10:58:27;;;;;;;15.30;4.20;;;;;;;5.26;77.03;96928.39;105264;1257;96593;-78
2023/11/24 11:03:35;;;;;;;30.50;10.20;;;;;;;5.17;76.82;96929.54;102175;1295;636130;-77
2023/11/24 11:06:14;;;;;;;20.10;5.80;;;;;;;5.10;76.89;96935.19;104541;1269;94306;-79
2023/11/24 11:08:57;;;;;;;22.50;4.90;;;;;;;5.10;76.80;96929.80;105099;1257;94299;-78
2023/11/24 11:12:02;;;;;;;15.10;4.40;;;;;;;5.09;76.71;96933.39;104898;1262;106864;-78
2023/11/24 11:14:30;;;;;;;13.70;3.80;;;;;;;5.08;76.62;96929.60;104773;1258;95417;-78
2023/11/24 11:16:59;;;;;;;12.00;4.50;;;;;;;5.07;76.70;96924.94;106294;1253;135508;-78
2023/11/24 11:19:33;;;;;;;13.50;4.50;;;;;;;5.06;76.57;96915.16;106184;1257;94296;-78
2023/11/24 11:22:01;;;;;;;12.80;3.40;;;;;;;5.06;76.65;96905.64;105277;1257;94291;-79
2023/11/24 11:24:29;;;;;;;16.80;3.90;;;;;;;5.08;76.53;96901.50;105641;1256;106783;-76
2023/11/24 11:26:58;;;;;;;18.80;5.90;;;;;;;5.08;76.07;96900.81;105667;1257;95421;-78
2023/11/24 11:29:28;;;;;;;16.00;4.40;;;;;;;5.06;76.29;96891.77;105481;1257;106047;-79
2023/11/24 11:31:56;;;;;;;16.10;4.70;;;;;;;5.05;76.25;96898.16;105484;1257;95393;-79
2023/11/24 11:34:30;;;;;;;15.40;5.00;;;;;;;5.00;75.78;96900.74;105563;1253;95240;-80